sensor_id;sensor_type;location;lat;lon;timestamp;temperature;humidity
41435;DHT22;27177;22.262;114.192;2022-11-20T00:01:14;22.30;99.90
41435;DHT22;27177;22.262;114.192;2022-11-20T00:03:41;22.30;99.90
41435;DHT22;27177;22.262;114.192;2022-11-20T00:06:14;22.40;99.90
41435;DHT22;27177;22.262;114.192;2022-11-20T00:08:41;22.40;99.90
41435;DHT22;27177;22.262;114.192;2022-11-20T00:11:14;22.40;99.90
41435;DHT22;27177;22.262;114.192;2022-11-20T00:13:41;22.40;99.90
41435;DHT22;27177;22.262;114.192;2022-11-20T00:16:10;22.40;99.90
41435;DHT22;27177;22.262;114.192;2022-11-20T00:18:37;22.40;99.90
41435;DHT22;27177;22.262;114.192;2022-11-20T00:21:06;22.50;99.90
41435;DHT22;27177;22.262;114.192;2022-11-20T00:23:34;22.50;99.90
41435;DHT22;27177;22.262;114.192;2022-11-20T00:28:36;22.40;99.90
41435;DHT22;27177;22.262;114.192;2022-11-20T00:31:09;22.40;99.90
41435;DHT22;27177;22.262;114.192;2022-11-20T00:33:36;22.40;99.90
41435;DHT22;27177;22.262;114.192;2022-11-20T00:36:05;22.50;99.90
41435;DHT22;27177;22.262;114.192;2022-11-20T00:38:33;22.50;99.90
41435;DHT22;27177;22.262;114.192;2022-11-20T00:41:02;22.60;99.90
41435;DHT22;27177;22.262;114.192;2022-11-20T00:43:29;22.60;99.90
41435;DHT22;27177;22.262;114.192;2022-11-20T00:46:00;22.60;99.90
41435;DHT22;27177;22.262;114.192;2022-11-20T00:48:27;22.70;99.90
41435;DHT22;27177;22.262;114.192;2022-11-20T00:50:54;22.60;99.90
41435;DHT22;27177;22.262;114.192;2022-11-20T00:53:21;22.60;99.90
41435;DHT22;27177;22.262;114.192;2022-11-20T00:58:37;22.60;99.90
41435;DHT22;27177;22.262;114.192;2022-11-20T01:01:06;22.60;99.90
41435;DHT22;27177;22.262;114.192;2022-11-20T01:03:35;22.60;99.90
41435;DHT22;27177;22.262;114.192;2022-11-20T01:11:16;22.60;99.90
41435;DHT22;27177;22.262;114.192;2022-11-20T01:13:45;22.60;99.90
41435;DHT22;27177;22.262;114.192;2022-11-20T01:23:54;22.70;99.90
41435;DHT22;27177;22.262;114.192;2022-11-20T01:31:36;22.90;99.90
41435;DHT22;27177;22.262;114.192;2022-11-20T01:36:59;23.00;99.90
41435;DHT22;27177;22.262;114.192;2022-11-20T01:57:38;23.40;99.90
41435;DHT22;27177;22.262;114.192;2022-11-20T02:03:03;23.30;99.90
41435;DHT22;27177;22.262;114.192;2022-11-20T02:05:32;23.40;99.90
41435;DHT22;27177;22.262;114.192;2022-11-20T02:16:08;23.40;99.90
41435;DHT22;27177;22.262;114.192;2022-11-20T02:19:12;23.40;99.90
41435;DHT22;27177;22.262;114.192;2022-11-20T02:24:17;23.40;99.90
41435;DHT22;27177;22.262;114.192;2022-11-20T02:29:39;23.30;99.90
41435;DHT22;27177;22.262;114.192;2022-11-20T02:42:42;23.60;99.90
41435;DHT22;27177;22.262;114.192;2022-11-20T02:45:09;23.70;99.90
41435;DHT22;27177;22.262;114.192;2022-11-20T02:47:36;23.70;99.90
41435;DHT22;27177;22.262;114.192;2022-11-20T02:55:14;23.90;99.90
41435;DHT22;27177;22.262;114.192;2022-11-20T02:57:40;23.90;99.90
41435;DHT22;27177;22.262;114.192;2022-11-20T03:05:19;23.90;99.90
41435;DHT22;27177;22.262;114.192;2022-11-20T03:07:46;24.00;99.90
41435;DHT22;27177;22.262;114.192;2022-11-20T03:10:12;24.00;99.90
41435;DHT22;27177;22.262;114.192;2022-11-20T03:15:15;24.10;99.90
41435;DHT22;27177;22.262;114.192;2022-11-20T03:17:41;24.20;99.90
41435;DHT22;27177;22.262;114.192;2022-11-20T03:20:08;24.20;99.90
41435;DHT22;27177;22.262;114.192;2022-11-20T03:22:35;24.20;99.90
41435;DHT22;27177;22.262;114.192;2022-11-20T03:25:02;24.30;99.90
41435;DHT22;27177;22.262;114.192;2022-11-20T03:27:35;24.30;99.90
41435;DHT22;27177;22.262;114.192;2022-11-20T03:30:02;24.30;99.90
41435;DHT22;27177;22.262;114.192;2022-11-20T03:32:29;24.30;99.90
41435;DHT22;27177;22.262;114.192;2022-11-20T03:39:58;24.30;99.90
41435;DHT22;27177;22.262;114.192;2022-11-20T03:42:25;24.30;99.90
41435;DHT22;27177;22.262;114.192;2022-11-20T03:45:10;24.40;99.90
41435;DHT22;27177;22.262;114.192;2022-11-20T03:47:36;24.40;99.90
41435;DHT22;27177;22.262;114.192;2022-11-20T03:50:03;24.50;99.90
41435;DHT22;27177;22.262;114.192;2022-11-20T03:52:30;24.50;99.90
41435;DHT22;27177;22.262;114.192;2022-11-20T03:54:57;24.60;99.90
41435;DHT22;27177;22.262;114.192;2022-11-20T03:57:24;24.60;99.90
41435;DHT22;27177;22.262;114.192;2022-11-20T03:59:50;24.50;99.90
41435;DHT22;27177;22.262;114.192;2022-11-20T04:04:44;24.60;99.90
41435;DHT22;27177;22.262;114.192;2022-11-20T04:07:11;24.60;99.90
41435;DHT22;27177;22.262;114.192;2022-11-20T04:09:38;24.60;99.90
41435;DHT22;27177;22.262;114.192;2022-11-20T04:12:05;24.60;99.90
41435;DHT22;27177;22.262;114.192;2022-11-20T04:14:32;24.70;99.90
41435;DHT22;27177;22.262;114.192;2022-11-20T04:16:59;24.70;99.90
41435;DHT22;27177;22.262;114.192;2022-11-20T04:19:26;24.70;99.90
41435;DHT22;27177;22.262;114.192;2022-11-20T04:21:53;24.70;99.90
41435;DHT22;27177;22.262;114.192;2022-11-20T04:24:20;24.70;99.90
41435;DHT22;27177;22.262;114.192;2022-11-20T04:26:46;24.70;99.90
41435;DHT22;27177;22.262;114.192;2022-11-20T04:29:13;24.70;99.90
41435;DHT22;27177;22.262;114.192;2022-11-20T04:31:40;24.70;99.90
41435;DHT22;27177;22.262;114.192;2022-11-20T04:34:07;24.80;99.90
41435;DHT22;27177;22.262;114.192;2022-11-20T04:39:30;24.70;99.90
41435;DHT22;27177;22.262;114.192;2022-11-20T04:41:56;24.80;99.90
41435;DHT22;27177;22.262;114.192;2022-11-20T04:44:41;24.80;99.90
41435;DHT22;27177;22.262;114.192;2022-11-20T04:47:08;24.80;99.90
41435;DHT22;27177;22.262;114.192;2022-11-20T04:49:35;24.90;99.90
41435;DHT22;27177;22.262;114.192;2022-11-20T04:52:01;24.90;99.90
41435;DHT22;27177;22.262;114.192;2022-11-20T04:54:30;24.90;99.90
41435;DHT22;27177;22.262;114.192;2022-11-20T04:56:57;25.00;99.90
41435;DHT22;27177;22.262;114.192;2022-11-20T04:59:24;25.00;99.90
41435;DHT22;27177;22.262;114.192;2022-11-20T05:04:26;25.10;99.90
41435;DHT22;27177;22.262;114.192;2022-11-20T05:06:53;25.10;99.90
41435;DHT22;27177;22.262;114.192;2022-11-20T05:09:19;25.20;99.90
41435;DHT22;27177;22.262;114.192;2022-11-20T05:11:46;25.20;99.90
41435;DHT22;27177;22.262;114.192;2022-11-20T05:14:13;25.20;99.90
41435;DHT22;27177;22.262;114.192;2022-11-20T05:16:39;25.20;99.90
41435;DHT22;27177;22.262;114.192;2022-11-20T05:19:06;25.20;99.90
41435;DHT22;27177;22.262;114.192;2022-11-20T05:21:33;25.20;99.90
41435;DHT22;27177;22.262;114.192;2022-11-20T05:24:00;25.10;99.90
41435;DHT22;27177;22.262;114.192;2022-11-20T05:26:26;25.10;99.90
41435;DHT22;27177;22.262;114.192;2022-11-20T05:28:53;25.20;99.90
41435;DHT22;27177;22.262;114.192;2022-11-20T05:31:22;25.20;99.90
41435;DHT22;27177;22.262;114.192;2022-11-20T05:33:48;25.10;99.90
41435;DHT22;27177;22.262;114.192;2022-11-20T05:41:22;25.30;99.90
41435;DHT22;27177;22.262;114.192;2022-11-20T05:51:35;25.10;99.90
41435;DHT22;27177;22.262;114.192;2022-11-20T05:54:04;25.00;99.90
41435;DHT22;27177;22.262;114.192;2022-11-20T05:56:30;25.00;99.90
41435;DHT22;27177;22.262;114.192;2022-11-20T06:01:34;25.00;99.90
41435;DHT22;27177;22.262;114.192;2022-11-20T06:04:02;25.00;99.90
41435;DHT22;27177;22.262;114.192;2022-11-20T06:06:29;25.10;99.90
41435;DHT22;27177;22.262;114.192;2022-11-20T06:08:56;25.10;99.90
41435;DHT22;27177;22.262;114.192;2022-11-20T06:11:25;25.10;99.90
41435;DHT22;27177;22.262;114.192;2022-11-20T06:13:52;25.20;99.90
41435;DHT22;27177;22.262;114.192;2022-11-20T06:16:19;25.20;99.90
41435;DHT22;27177;22.262;114.192;2022-11-20T06:18:48;25.30;99.90
41435;DHT22;27177;22.262;114.192;2022-11-20T06:21:17;25.30;99.90
41435;DHT22;27177;22.262;114.192;2022-11-20T06:23:50;25.30;99.90
41435;DHT22;27177;22.262;114.192;2022-11-20T06:31:25;25.20;99.90
41435;DHT22;27177;22.262;114.192;2022-11-20T06:44:14;25.00;99.90
41435;DHT22;27177;22.262;114.192;2022-11-20T06:49:16;24.90;99.90
41435;DHT22;27177;22.262;114.192;2022-11-20T06:51:43;24.80;99.90
41435;DHT22;27177;22.262;114.192;2022-11-20T06:54:09;24.80;99.90
41435;DHT22;27177;22.262;114.192;2022-11-20T06:56:36;24.80;99.90
41435;DHT22;27177;22.262;114.192;2022-11-20T07:01:38;24.80;99.90
41435;DHT22;27177;22.262;114.192;2022-11-20T07:04:05;24.80;99.90
41435;DHT22;27177;22.262;114.192;2022-11-20T07:06:32;24.80;99.90
41435;DHT22;27177;22.262;114.192;2022-11-20T07:11:28;24.60;99.90
41435;DHT22;27177;22.262;114.192;2022-11-20T07:13:54;24.60;99.90
41435;DHT22;27177;22.262;114.192;2022-11-20T07:16:23;24.40;99.90
41435;DHT22;27177;22.262;114.192;2022-11-20T07:44:35;24.50;99.90
41435;DHT22;27177;22.262;114.192;2022-11-20T07:47:02;24.50;99.90
41435;DHT22;27177;22.262;114.192;2022-11-20T07:49:28;24.50;99.90
41435;DHT22;27177;22.262;114.192;2022-11-20T07:51:55;24.50;99.90
41435;DHT22;27177;22.262;114.192;2022-11-20T08:00:31;24.50;99.90
41435;DHT22;27177;22.262;114.192;2022-11-20T08:02:58;24.50;99.90
41435;DHT22;27177;22.262;114.192;2022-11-20T08:05:32;24.50;99.90
41435;DHT22;27177;22.262;114.192;2022-11-20T08:07:59;24.40;99.90
41435;DHT22;27177;22.262;114.192;2022-11-20T08:10:26;24.40;99.90
41435;DHT22;27177;22.262;114.192;2022-11-20T08:15:28;24.30;99.90
41435;DHT22;27177;22.262;114.192;2022-11-20T08:20:31;24.20;99.90
41435;DHT22;27177;22.262;114.192;2022-11-20T08:25:34;24.10;99.90
41435;DHT22;27177;22.262;114.192;2022-11-20T08:28:05;24.00;99.90
41435;DHT22;27177;22.262;114.192;2022-11-20T08:38:21;23.80;99.90
41435;DHT22;27177;22.262;114.192;2022-11-20T08:40:49;23.80;99.90
41435;DHT22;27177;22.262;114.192;2022-11-20T08:43:35;23.70;99.90
41435;DHT22;27177;22.262;114.192;2022-11-20T08:46:02;23.70;99.90
41435;DHT22;27177;22.262;114.192;2022-11-20T08:51:04;23.60;99.90
41435;DHT22;27177;22.262;114.192;2022-11-20T08:53:31;23.60;99.90
41435;DHT22;27177;22.262;114.192;2022-11-20T08:55:58;23.50;99.90
41435;DHT22;27177;22.262;114.192;2022-11-20T09:01:00;23.40;99.90
41435;DHT22;27177;22.262;114.192;2022-11-20T09:03:27;23.40;99.90
41435;DHT22;27177;22.262;114.192;2022-11-20T09:06:05;23.30;99.90
41435;DHT22;27177;22.262;114.192;2022-11-20T09:13:43;23.20;99.90
41435;DHT22;27177;22.262;114.192;2022-11-20T09:16:09;23.20;99.90
41435;DHT22;27177;22.262;114.192;2022-11-20T09:18:37;23.10;99.90
41435;DHT22;27177;22.262;114.192;2022-11-20T09:21:07;23.10;99.90
41435;DHT22;27177;22.262;114.192;2022-11-20T09:23:36;23.10;99.90
41435;DHT22;27177;22.262;114.192;2022-11-20T09:26:09;23.00;99.90
41435;DHT22;27177;22.262;114.192;2022-11-20T09:28:36;23.00;99.90
41435;DHT22;27177;22.262;114.192;2022-11-20T09:31:16;23.00;99.90
41435;DHT22;27177;22.262;114.192;2022-11-20T09:33:44;22.90;99.90
41435;DHT22;27177;22.262;114.192;2022-11-20T09:36:11;22.90;99.90
41435;DHT22;27177;22.262;114.192;2022-11-20T09:38:37;22.90;99.90
41435;DHT22;27177;22.262;114.192;2022-11-20T09:41:06;22.80;99.90
41435;DHT22;27177;22.262;114.192;2022-11-20T09:56:51;22.80;99.90
41435;DHT22;27177;22.262;114.192;2022-11-20T09:59:45;22.80;99.90
41435;DHT22;27177;22.262;114.192;2022-11-20T10:31:17;22.70;99.90
41435;DHT22;27177;22.262;114.192;2022-11-20T10:33:52;22.70;99.90
41435;DHT22;27177;22.262;114.192;2022-11-20T10:39:51;22.70;99.90
41435;DHT22;27177;22.262;114.192;2022-11-20T10:42:37;22.70;99.90
41435;DHT22;27177;22.262;114.192;2022-11-20T10:48:28;22.70;99.90
41435;DHT22;27177;22.262;114.192;2022-11-20T11:01:41;22.70;99.90
41435;DHT22;27177;22.262;114.192;2022-11-20T11:04:43;22.70;99.90
41435;DHT22;27177;22.262;114.192;2022-11-20T11:07:17;22.70;99.90
41435;DHT22;27177;22.262;114.192;2022-11-20T11:12:14;22.70;99.90
41435;DHT22;27177;22.262;114.192;2022-11-20T11:14:59;22.70;99.90
41435;DHT22;27177;22.262;114.192;2022-11-20T11:33:25;22.60;99.90
41435;DHT22;27177;22.262;114.192;2022-11-20T11:35:55;22.60;99.90
41435;DHT22;27177;22.262;114.192;2022-11-20T11:54:42;22.50;99.90
41435;DHT22;27177;22.262;114.192;2022-11-20T12:18:42;22.50;99.90
41435;DHT22;27177;22.262;114.192;2022-11-20T12:21:19;22.50;99.90
41435;DHT22;27177;22.262;114.192;2022-11-20T12:31:48;22.40;99.90
41435;DHT22;27177;22.262;114.192;2022-11-20T12:39:43;22.40;99.90
41435;DHT22;27177;22.262;114.192;2022-11-20T12:45:41;22.40;99.90
41435;DHT22;27177;22.262;114.192;2022-11-20T12:51:30;22.30;99.90
41435;DHT22;27177;22.262;114.192;2022-11-20T12:57:09;22.30;99.90
41435;DHT22;27177;22.262;114.192;2022-11-20T13:07:52;22.30;99.90
41435;DHT22;27177;22.262;114.192;2022-11-20T13:13:00;22.30;99.90
41435;DHT22;27177;22.262;114.192;2022-11-20T13:18:04;22.30;99.90
41435;DHT22;27177;22.262;114.192;2022-11-20T13:20:33;22.30;99.90
41435;DHT22;27177;22.262;114.192;2022-11-20T13:23:01;22.30;99.90
41435;DHT22;27177;22.262;114.192;2022-11-20T13:25:36;22.30;99.90
41435;DHT22;27177;22.262;114.192;2022-11-20T13:30:53;22.30;99.90
41435;DHT22;27177;22.262;114.192;2022-11-20T13:33:32;22.20;99.90
41435;DHT22;27177;22.262;114.192;2022-11-20T13:36:24;22.30;99.90
41435;DHT22;27177;22.262;114.192;2022-11-20T13:41:33;22.30;99.90
41435;DHT22;27177;22.262;114.192;2022-11-20T13:44:11;22.30;99.90
41435;DHT22;27177;22.262;114.192;2022-11-20T13:46:44;22.30;99.90
41435;DHT22;27177;22.262;114.192;2022-11-20T13:54:55;22.30;99.90
41435;DHT22;27177;22.262;114.192;2022-11-20T14:02:38;22.20;99.90
41435;DHT22;27177;22.262;114.192;2022-11-20T14:05:06;22.20;99.90
41435;DHT22;27177;22.262;114.192;2022-11-20T14:07:44;22.20;99.90
41435;DHT22;27177;22.262;114.192;2022-11-20T14:10:26;22.20;99.90
41435;DHT22;27177;22.262;114.192;2022-11-20T14:12:53;22.20;99.90
41435;DHT22;27177;22.262;114.192;2022-11-20T14:15:29;22.20;99.90
41435;DHT22;27177;22.262;114.192;2022-11-20T14:17:57;22.20;99.90
41435;DHT22;27177;22.262;114.192;2022-11-20T14:20:29;22.20;99.90
41435;DHT22;27177;22.262;114.192;2022-11-20T14:22:57;22.20;99.90
41435;DHT22;27177;22.262;114.192;2022-11-20T14:25:25;22.10;99.90
41435;DHT22;27177;22.262;114.192;2022-11-20T14:27:59;22.20;99.90
41435;DHT22;27177;22.262;114.192;2022-11-20T14:30:42;22.20;99.90
41435;DHT22;27177;22.262;114.192;2022-11-20T14:33:11;22.10;99.90
41435;DHT22;27177;22.262;114.192;2022-11-20T14:35:47;22.20;99.90
41435;DHT22;27177;22.262;114.192;2022-11-20T14:38:21;22.20;99.90
41435;DHT22;27177;22.262;114.192;2022-11-20T14:40:49;22.20;99.90
41435;DHT22;27177;22.262;114.192;2022-11-20T14:48:48;22.20;99.90
41435;DHT22;27177;22.262;114.192;2022-11-20T14:51:33;22.20;99.90
41435;DHT22;27177;22.262;114.192;2022-11-20T14:54:10;22.20;99.90
41435;DHT22;27177;22.262;114.192;2022-11-20T14:59:23;22.20;99.90
41435;DHT22;27177;22.262;114.192;2022-11-20T15:02:07;22.10;99.90
41435;DHT22;27177;22.262;114.192;2022-11-20T15:04:48;22.10;99.90
41435;DHT22;27177;22.262;114.192;2022-11-20T15:07:30;22.10;99.90
41435;DHT22;27177;22.262;114.192;2022-11-20T15:10:12;22.10;99.90
41435;DHT22;27177;22.262;114.192;2022-11-20T15:12:51;22.10;99.90
41435;DHT22;27177;22.262;114.192;2022-11-20T15:18:14;22.10;99.90
41435;DHT22;27177;22.262;114.192;2022-11-20T15:20:42;22.00;99.90
41435;DHT22;27177;22.262;114.192;2022-11-20T15:23:13;22.00;99.90
41435;DHT22;27177;22.262;114.192;2022-11-20T15:25:41;22.00;99.90
41435;DHT22;27177;22.262;114.192;2022-11-20T15:28:17;22.00;99.90
41435;DHT22;27177;22.262;114.192;2022-11-20T15:30:46;22.00;99.90
41435;DHT22;27177;22.262;114.192;2022-11-20T15:33:13;22.00;99.90
41435;DHT22;27177;22.262;114.192;2022-11-20T15:35:40;22.00;99.90
41435;DHT22;27177;22.262;114.192;2022-11-20T15:38:07;22.00;99.90
41435;DHT22;27177;22.262;114.192;2022-11-20T15:40:34;21.90;99.90
41435;DHT22;27177;22.262;114.192;2022-11-20T15:43:00;21.90;99.90
41435;DHT22;27177;22.262;114.192;2022-11-20T15:45:43;21.90;99.90
41435;DHT22;27177;22.262;114.192;2022-11-20T15:48:34;21.90;99.90
41435;DHT22;27177;22.262;114.192;2022-11-20T15:53:40;21.90;99.90
41435;DHT22;27177;22.262;114.192;2022-11-20T15:56:12;21.90;99.90
41435;DHT22;27177;22.262;114.192;2022-11-20T15:58:40;21.90;99.90
41435;DHT22;27177;22.262;114.192;2022-11-20T16:01:18;21.80;99.90
41435;DHT22;27177;22.262;114.192;2022-11-20T16:03:45;21.80;99.90
41435;DHT22;27177;22.262;114.192;2022-11-20T16:06:12;21.80;99.90
41435;DHT22;27177;22.262;114.192;2022-11-20T16:08:39;21.80;99.90
41435;DHT22;27177;22.262;114.192;2022-11-20T16:11:05;21.80;99.90
41435;DHT22;27177;22.262;114.192;2022-11-20T16:13:32;21.80;99.90
41435;DHT22;27177;22.262;114.192;2022-11-20T16:16:33;21.80;99.90
41435;DHT22;27177;22.262;114.192;2022-11-20T16:19:00;21.80;99.90
41435;DHT22;27177;22.262;114.192;2022-11-20T16:21:28;21.80;99.90
41435;DHT22;27177;22.262;114.192;2022-11-20T16:24:05;21.80;99.90
41435;DHT22;27177;22.262;114.192;2022-11-20T16:26:33;21.80;99.90
41435;DHT22;27177;22.262;114.192;2022-11-20T16:29:01;21.80;99.90
41435;DHT22;27177;22.262;114.192;2022-11-20T16:31:28;21.80;99.90
41435;DHT22;27177;22.262;114.192;2022-11-20T16:33:58;21.80;99.90
41435;DHT22;27177;22.262;114.192;2022-11-20T16:36:26;21.80;99.90
41435;DHT22;27177;22.262;114.192;2022-11-20T16:38:55;21.80;99.90
41435;DHT22;27177;22.262;114.192;2022-11-20T16:41:23;21.80;99.90
41435;DHT22;27177;22.262;114.192;2022-11-20T16:44:00;21.80;99.90
41435;DHT22;27177;22.262;114.192;2022-11-20T16:46:29;21.80;99.90
41435;DHT22;27177;22.262;114.192;2022-11-20T16:48:58;21.80;99.90
41435;DHT22;27177;22.262;114.192;2022-11-20T16:51:27;21.80;99.90
41435;DHT22;27177;22.262;114.192;2022-11-20T16:53:54;21.80;99.90
41435;DHT22;27177;22.262;114.192;2022-11-20T16:56:23;21.80;99.90
41435;DHT22;27177;22.262;114.192;2022-11-20T16:58:52;21.80;99.90
41435;DHT22;27177;22.262;114.192;2022-11-20T17:01:21;21.80;99.90
41435;DHT22;27177;22.262;114.192;2022-11-20T17:04:03;21.80;99.90
41435;DHT22;27177;22.262;114.192;2022-11-20T17:06:35;21.80;99.90
41435;DHT22;27177;22.262;114.192;2022-11-20T17:09:02;21.80;99.90
41435;DHT22;27177;22.262;114.192;2022-11-20T17:11:29;21.80;99.90
41435;DHT22;27177;22.262;114.192;2022-11-20T17:13:57;21.90;99.90
41435;DHT22;27177;22.262;114.192;2022-11-20T17:16:33;21.80;99.90
41435;DHT22;27177;22.262;114.192;2022-11-20T17:19:01;21.90;99.90
41435;DHT22;27177;22.262;114.192;2022-11-20T17:21:34;21.90;99.90
41435;DHT22;27177;22.262;114.192;2022-11-20T17:24:13;21.90;99.90
41435;DHT22;27177;22.262;114.192;2022-11-20T17:26:42;21.80;99.90
41435;DHT22;27177;22.262;114.192;2022-11-20T17:29:17;21.90;99.90
41435;DHT22;27177;22.262;114.192;2022-11-20T17:31:46;21.90;99.90
41435;DHT22;27177;22.262;114.192;2022-11-20T17:34:15;21.90;99.90
41435;DHT22;27177;22.262;114.192;2022-11-20T17:36:42;21.90;99.90
41435;DHT22;27177;22.262;114.192;2022-11-20T17:39:15;21.90;99.90
41435;DHT22;27177;22.262;114.192;2022-11-20T17:41:43;21.90;99.90
41435;DHT22;27177;22.262;114.192;2022-11-20T17:44:11;21.90;99.90
41435;DHT22;27177;22.262;114.192;2022-11-20T17:46:38;22.00;99.90
41435;DHT22;27177;22.262;114.192;2022-11-20T17:49:05;22.00;99.90
41435;DHT22;27177;22.262;114.192;2022-11-20T17:51:33;22.00;99.90
41435;DHT22;27177;22.262;114.192;2022-11-20T17:54:09;22.10;99.90
41435;DHT22;27177;22.262;114.192;2022-11-20T17:56:36;22.00;99.90
41435;DHT22;27177;22.262;114.192;2022-11-20T17:59:21;22.00;99.90
41435;DHT22;27177;22.262;114.192;2022-11-20T18:01:50;22.00;99.90
41435;DHT22;27177;22.262;114.192;2022-11-20T18:04:17;22.00;99.90
41435;DHT22;27177;22.262;114.192;2022-11-20T18:06:43;22.00;99.90
41435;DHT22;27177;22.262;114.192;2022-11-20T18:09:11;21.90;99.90
41435;DHT22;27177;22.262;114.192;2022-11-20T18:11:39;21.90;99.90
41435;DHT22;27177;22.262;114.192;2022-11-20T18:16:45;21.90;99.90
41435;DHT22;27177;22.262;114.192;2022-11-20T18:21:47;21.90;99.90
41435;DHT22;27177;22.262;114.192;2022-11-20T18:24:14;21.90;99.90
41435;DHT22;27177;22.262;114.192;2022-11-20T18:26:41;21.90;99.90
41435;DHT22;27177;22.262;114.192;2022-11-20T18:34:18;21.90;99.90
41435;DHT22;27177;22.262;114.192;2022-11-20T18:36:45;21.90;99.90
41435;DHT22;27177;22.262;114.192;2022-11-20T18:39:13;21.90;99.90
41435;DHT22;27177;22.262;114.192;2022-11-20T18:41:40;21.90;99.90
41435;DHT22;27177;22.262;114.192;2022-11-20T18:44:27;21.90;99.90
41435;DHT22;27177;22.262;114.192;2022-11-20T18:47:11;21.90;99.90
41435;DHT22;27177;22.262;114.192;2022-11-20T18:49:38;21.90;99.90
41435;DHT22;27177;22.262;114.192;2022-11-20T18:52:05;21.90;99.90
41435;DHT22;27177;22.262;114.192;2022-11-20T18:59:36;21.90;99.90
41435;DHT22;27177;22.262;114.192;2022-11-20T19:02:03;21.90;99.90
41435;DHT22;27177;22.262;114.192;2022-11-20T19:04:32;21.90;99.90
41435;DHT22;27177;22.262;114.192;2022-11-20T19:07:02;21.90;99.90
41435;DHT22;27177;22.262;114.192;2022-11-20T19:12:01;21.90;99.90
41435;DHT22;27177;22.262;114.192;2022-11-20T19:14:28;21.80;99.90
41435;DHT22;27177;22.262;114.192;2022-11-20T19:16:55;21.80;99.90
41435;DHT22;27177;22.262;114.192;2022-11-20T19:19:21;21.80;99.90
41435;DHT22;27177;22.262;114.192;2022-11-20T19:27:00;21.70;99.90
41435;DHT22;27177;22.262;114.192;2022-11-20T19:29:28;21.70;99.90
41435;DHT22;27177;22.262;114.192;2022-11-20T19:34:30;21.70;99.90
41435;DHT22;27177;22.262;114.192;2022-11-20T19:39:33;21.70;99.90
41435;DHT22;27177;22.262;114.192;2022-11-20T19:52:22;21.60;99.90
41435;DHT22;27177;22.262;114.192;2022-11-20T19:57:34;21.60;99.90
41435;DHT22;27177;22.262;114.192;2022-11-20T20:02:36;21.60;99.90
41435;DHT22;27177;22.262;114.192;2022-11-20T20:07:52;21.60;99.90
41435;DHT22;27177;22.262;114.192;2022-11-20T20:15:28;21.60;99.90
41435;DHT22;27177;22.262;114.192;2022-11-20T20:17:55;21.70;99.90
41435;DHT22;27177;22.262;114.192;2022-11-20T20:20:22;21.70;99.90
41435;DHT22;27177;22.262;114.192;2022-11-20T20:22:51;21.70;99.90
41435;DHT22;27177;22.262;114.192;2022-11-20T20:25:18;21.70;99.90
41435;DHT22;27177;22.262;114.192;2022-11-20T20:27:45;21.70;99.90
41435;DHT22;27177;22.262;114.192;2022-11-20T20:32:47;21.70;99.90
41435;DHT22;27177;22.262;114.192;2022-11-20T20:35:13;21.80;99.90
41435;DHT22;27177;22.262;114.192;2022-11-20T20:37:40;21.70;99.90
41435;DHT22;27177;22.262;114.192;2022-11-20T20:40:08;21.70;99.90
41435;DHT22;27177;22.262;114.192;2022-11-20T20:42:35;21.70;99.90
41435;DHT22;27177;22.262;114.192;2022-11-20T20:45:02;21.70;99.90
41435;DHT22;27177;22.262;114.192;2022-11-20T20:52:44;21.70;99.90
41435;DHT22;27177;22.262;114.192;2022-11-20T20:55:11;21.70;99.90
41435;DHT22;27177;22.262;114.192;2022-11-20T20:57:37;21.70;99.90
41435;DHT22;27177;22.262;114.192;2022-11-20T21:00:05;21.70;99.90
41435;DHT22;27177;22.262;114.192;2022-11-20T21:02:32;21.70;99.90
41435;DHT22;27177;22.262;114.192;2022-11-20T21:04:59;21.70;99.90
41435;DHT22;27177;22.262;114.192;2022-11-20T21:07:26;21.70;99.90
41435;DHT22;27177;22.262;114.192;2022-11-20T21:09:53;21.70;99.90
41435;DHT22;27177;22.262;114.192;2022-11-20T21:12:21;21.60;99.90
41435;DHT22;27177;22.262;114.192;2022-11-20T21:14:48;21.70;99.90
41435;DHT22;27177;22.262;114.192;2022-11-20T21:17:15;21.60;99.90
41435;DHT22;27177;22.262;114.192;2022-11-20T21:22:53;21.60;99.90
41435;DHT22;27177;22.262;114.192;2022-11-20T21:25:20;21.70;99.90
41435;DHT22;27177;22.262;114.192;2022-11-20T21:27:47;21.60;99.90
41435;DHT22;27177;22.262;114.192;2022-11-20T21:33:44;21.70;99.90
41435;DHT22;27177;22.262;114.192;2022-11-20T21:38:47;21.70;99.90
41435;DHT22;27177;22.262;114.192;2022-11-20T21:41:15;21.60;99.90
41435;DHT22;27177;22.262;114.192;2022-11-20T21:43:42;21.70;99.90
41435;DHT22;27177;22.262;114.192;2022-11-20T21:46:11;21.70;99.90
41435;DHT22;27177;22.262;114.192;2022-11-20T21:48:39;21.70;99.90
41435;DHT22;27177;22.262;114.192;2022-11-20T21:51:14;21.70;99.90
41435;DHT22;27177;22.262;114.192;2022-11-20T21:56:13;21.70;99.90
41435;DHT22;27177;22.262;114.192;2022-11-20T21:58:49;21.70;99.90
41435;DHT22;27177;22.262;114.192;2022-11-20T22:01:18;21.60;99.90
41435;DHT22;27177;22.262;114.192;2022-11-20T22:04:00;21.70;99.90
41435;DHT22;27177;22.262;114.192;2022-11-20T22:06:31;21.60;99.90
41435;DHT22;27177;22.262;114.192;2022-11-20T22:08:58;21.70;99.90
41435;DHT22;27177;22.262;114.192;2022-11-20T22:14:00;21.60;99.90
41435;DHT22;27177;22.262;114.192;2022-11-20T22:16:38;21.60;99.90
41435;DHT22;27177;22.262;114.192;2022-11-20T22:19:05;21.60;99.90
41435;DHT22;27177;22.262;114.192;2022-11-20T22:21:32;21.60;99.90
41435;DHT22;27177;22.262;114.192;2022-11-20T22:24:00;21.60;99.90
41435;DHT22;27177;22.262;114.192;2022-11-20T22:26:29;21.60;99.90
41435;DHT22;27177;22.262;114.192;2022-11-20T22:28:57;21.70;99.90
41435;DHT22;27177;22.262;114.192;2022-11-20T22:31:27;21.60;99.90
41435;DHT22;27177;22.262;114.192;2022-11-20T22:33:55;21.60;99.90
41435;DHT22;27177;22.262;114.192;2022-11-20T22:36:24;21.70;99.90
41435;DHT22;27177;22.262;114.192;2022-11-20T22:38:55;21.70;99.90
41435;DHT22;27177;22.262;114.192;2022-11-20T22:44:13;21.70;99.90
41435;DHT22;27177;22.262;114.192;2022-11-20T22:46:42;21.70;99.90
41435;DHT22;27177;22.262;114.192;2022-11-20T22:49:09;21.70;99.90
41435;DHT22;27177;22.262;114.192;2022-11-20T22:51:37;21.70;99.90